^^
Datos históricos de la estación: Murcia-Puente Tocinos
Diario Informe para Marzo 13, 2019 Unidades:  Métrico    Inglés   Ambas
Diario Semanal Mensual Anual Configurable
  Máximo: Mínimo: Media:
Temperatura: 22.6 °C 11.6 °C 16.3 °C
Punto de rocio: 10.7 °C 3.1 °C 7.9 °C
Humedad: 80% 28% 60%
Velocidad viento: 24.1km/h 0.0km/h 11.2km/h
Racha viento: 46.7km/h - -
Viento- - South
Presión: 1026.4 hPa 1018.0 hPa -
Precipitación: 0.0 mm    
Historical Graphs
 
 
Tabla de datos para Marzo 13, 2019
Hora Temperatura Punto de rocio Presión Viento Velocidad viento Racha viento Humedad Intensidad lluvia(por hora) Nubes
00:00 15.1 °C 10.7 °C 1021.0 hPa SSW 11.3 km/h 16.1 km/h 75% 0.0 mm CLR
00:05 15.0 °C 10.6 °C 1020.9 hPa SSW 10.3 km/h 13.0 km/h 75% 0.0 mm CLR
00:10 14.9 °C 10.7 °C 1020.9 hPa SSW 7.6 km/h 11.1 km/h 76% 0.0 mm CLR
00:15 14.8 °C 10.6 °C 1020.9 hPa SSW 7.6 km/h 11.1 km/h 76% 0.0 mm CLR
00:20 14.8 °C 10.6 °C 1020.6 hPa South 8.7 km/h 9.3 km/h 76% 0.0 mm CLR
00:25 14.8 °C 10.6 °C 1020.6 hPa South 8.7 km/h 14.8 km/h 76% 0.0 mm CLR
00:30 14.6 °C 10.4 °C 1020.6 hPa SSW 9.5 km/h 13.0 km/h 76% 0.0 mm CLR
00:35 14.4 °C 10.4 °C 1020.5 hPa SW 9.5 km/h 11.1 km/h 77% 0.0 mm CLR
00:40 14.4 °C 10.4 °C 1020.5 hPa SW 8.4 km/h 11.1 km/h 77% 0.0 mm CLR
00:45 14.4 °C 10.4 °C 1020.5 hPa WSW 8.4 km/h 7.6 km/h 77% 0.0 mm CLR
00:50 14.3 °C 10.3 °C 1020.4 hPa SW 6.9 km/h 9.3 km/h 77% 0.0 mm CLR
00:55 14.3 °C 10.3 °C 1020.4 hPa South 6.9 km/h 9.3 km/h 77% 0.0 mm CLR
01:00 14.3 °C 10.3 °C 1020.4 hPa South 8.0 km/h 12.9 km/h 77% 0.0 mm CLR
01:05 14.2 °C 10.4 °C 1020.1 hPa South 6.4 km/h 13.0 km/h 78% 0.0 mm CLR
01:10 13.9 °C 10.1 °C 1020.1 hPa SSW 9.5 km/h 14.8 km/h 78% 0.0 mm CLR
01:15 13.8 °C 10.1 °C 1020.1 hPa South 9.5 km/h 7.6 km/h 78% 0.0 mm CLR
01:20 13.8 °C 10.2 °C 1020.0 hPa South 7.6 km/h 7.4 km/h 79% 0.0 mm CLR
01:25 13.7 °C 10.1 °C 1020.0 hPa SSW 7.6 km/h 11.1 km/h 79% 0.0 mm CLR
01:30 13.7 °C 10.1 °C 1020.0 hPa SW 5.8 km/h 9.3 km/h 79% 0.0 mm CLR
01:35 13.8 °C 10.2 °C 1019.8 hPa SSW 5.8 km/h 9.3 km/h 79% 0.0 mm CLR
01:40 13.9 °C 10.1 °C 1019.8 hPa SW 6.4 km/h 11.1 km/h 78% 0.0 mm CLR
01:45 13.9 °C 10.1 °C 1019.8 hPa SSW 6.4 km/h 7.4 km/h 78% 0.0 mm CLR
01:50 13.9 °C 10.1 °C 1019.8 hPa SW 5.8 km/h 9.3 km/h 78% 0.0 mm CLR
01:55 14.0 °C 10.1 °C 1019.8 hPa WSW 5.8 km/h 7.4 km/h 77% 0.0 mm CLR
02:00 14.0 °C 10.1 °C 1019.8 hPa WSW 3.2 km/h 8.0 km/h 77% 0.0 mm CLR
02:05 14.0 °C 10.1 °C 1019.8 hPa SW 4.7 km/h 9.3 km/h 77% 0.0 mm CLR
02:10 14.0 °C 10.1 °C 1019.8 hPa SSW 4.7 km/h 9.5 km/h 77% 0.0 mm CLR
02:15 14.0 °C 10.1 °C 1019.8 hPa SW 4.7 km/h 11.1 km/h 77% 0.0 mm CLR
02:20 14.1 °C 10.1 °C 1019.7 hPa SSW 7.6 km/h 14.8 km/h 77% 0.0 mm CLR
02:25 14.1 °C 10.1 °C 1019.7 hPa SSW 7.6 km/h 13.0 km/h 77% 0.0 mm CLR
02:30 14.1 °C 10.1 °C 1019.7 hPa SSW 8.7 km/h 14.8 km/h 77% 0.0 mm CLR
02:35 14.0 °C 10.0 °C 1019.5 hPa SSW 9.7 km/h 14.5 km/h 77% 0.0 mm CLR
02:40 13.8 °C 9.8 °C 1019.5 hPa SSW 8.7 km/h 11.1 km/h 77% 0.0 mm CLR
02:45 13.8 °C 9.8 °C 1019.5 hPa South 8.7 km/h 11.1 km/h 77% 0.0 mm CLR
02:50 13.7 °C 9.9 °C 1019.5 hPa South 8.4 km/h 9.3 km/h 78% 0.0 mm CLR
02:55 13.6 °C 9.8 °C 1019.5 hPa SSE 8.4 km/h 11.9 km/h 78% 0.0 mm CLR
03:00 13.4 °C 9.8 °C 1019.5 hPa South 8.0 km/h 14.5 km/h 79% 0.0 mm CLR
03:05 13.2 °C 9.8 °C 1019.1 hPa SSW 8.4 km/h 14.8 km/h 80% 0.0 mm CLR
03:10 13.2 °C 9.8 °C 1019.1 hPa SW 10.0 km/h 13.0 km/h 80% 0.0 mm CLR
03:15 13.2 °C 9.8 °C 1019.1 hPa SW 10.0 km/h 9.3 km/h 80% 0.0 mm CLR
03:20 13.2 °C 9.6 °C 1018.8 hPa SW 6.9 km/h 9.5 km/h 79% 0.0 mm CLR
03:25 13.3 °C 9.7 °C 1018.8 hPa WSW 6.9 km/h 7.4 km/h 79% 0.0 mm CLR
03:30 13.3 °C 9.6 °C 1018.8 hPa SW 5.8 km/h 7.4 km/h 78% 0.0 mm CLR
03:35 13.3 °C 9.6 °C 1018.6 hPa SW 5.8 km/h 7.4 km/h 78% 0.0 mm CLR
03:40 13.4 °C 9.7 °C 1018.6 hPa WSW 3.9 km/h 7.4 km/h 78% 0.0 mm CLR
03:45 13.3 °C 9.6 °C 1018.6 hPa WSW 3.9 km/h 3.9 km/h 78% 0.0 mm CLR
03:50 13.2 °C 9.4 °C 1018.6 hPa WSW 3.9 km/h 3.9 km/h 78% 0.0 mm CLR
03:55 13.2 °C 9.6 °C 1018.6 hPa West 3.9 km/h 7.4 km/h 79% 0.0 mm CLR
04:00 13.1 °C 9.6 °C 1018.6 hPa West 3.2 km/h 6.4 km/h 79% 0.0 mm CLR
04:05 12.9 °C 9.3 °C 1018.3 hPa West 3.9 km/h   79% 0.0 mm CLR
04:10 12.8 °C 8.9 °C 1018.3 hPa SE 2.3 km/h 10.0 km/h 77% 0.0 mm CLR
04:15 12.3 °C 8.6 °C 1018.3 hPa SSE 2.3 km/h 11.1 km/h 78% 0.0 mm CLR
04:20 12.2 °C 8.8 °C 1018.1 hPa SSW 8.4 km/h 11.1 km/h 80% 0.0 mm CLR
04:25 12.3 °C 8.9 °C 1018.1 hPa South 8.4 km/h 7.6 km/h 80% 0.0 mm CLR
04:30 12.5 °C 9.2 °C 1018.1 hPa South 6.4 km/h 7.4 km/h 80% 0.0 mm CLR
04:35 12.7 °C 9.2 °C 1018.0 hPa SSE 6.4 km/h 11.1 km/h 79% 0.0 mm CLR
04:40 12.6 °C 8.9 °C 1018.0 hPa SSE 6.9 km/h 9.3 km/h 78% 0.0 mm CLR
04:45 12.4 °C 8.7 °C 1018.0 hPa South 6.9 km/h 11.1 km/h 78% 0.0 mm CLR
04:50 12.3 °C 8.6 °C 1018.0 hPa South 5.8 km/h 7.4 km/h 78% 0.0 mm CLR
04:55 12.3 °C 8.8 °C 1018.0 hPa South 5.8 km/h 7.4 km/h 79% 0.0 mm CLR
05:00 12.4 °C 8.8 °C 1018.0 hPa SSW 4.8 km/h 8.0 km/h 79% 0.0 mm CLR
05:05 12.4 °C 8.7 °C 1018.0 hPa South 5.0 km/h 9.3 km/h 78% 0.0 mm CLR
05:10 12.5 °C 8.8 °C 1018.0 hPa SW 5.8 km/h 7.4 km/h 78% 0.0 mm CLR
05:15 12.7 °C 8.8 °C 1018.0 hPa SSW 5.8 km/h 11.1 km/h 77% 0.0 mm CLR
05:20 12.7 °C 8.6 °C 1018.0 hPa SSW 7.6 km/h 11.1 km/h 76% 0.0 mm CLR
05:25 12.8 °C 8.7 °C 1018.0 hPa South 7.6 km/h 13.0 km/h 76% 0.0 mm CLR
05:30 12.7 °C 8.6 °C 1018.0 hPa South 8.4 km/h 11.1 km/h 76% 0.0 mm CLR
05:35 12.6 °C 8.5 °C 1018.0 hPa SSW 8.4 km/h 9.3 km/h 76% 0.0 mm CLR
05:40 12.6 °C 8.5 °C 1018.0 hPa SSW 6.9 km/h 7.6 km/h 76% 0.0 mm CLR
05:45 12.6 °C 8.3 °C 1018.0 hPa South 6.9 km/h 7.6 km/h 75% 0.0 mm CLR
05:50 12.7 °C 8.4 °C 1018.1 hPa South 5.8 km/h 7.4 km/h 75% 0.0 mm CLR
05:55 12.7 °C 8.2 °C 1018.1 hPa South 5.8 km/h 7.4 km/h 74% 0.0 mm CLR
06:00 12.7 °C 8.2 °C 1018.1 hPa South 4.8 km/h 9.7 km/h 74% 0.0 mm CLR
06:05 12.8 °C 8.1 °C 1018.1 hPa SSW 5.8 km/h 9.3 km/h 73% 0.0 mm CLR
06:10 12.8 °C 8.1 °C 1018.1 hPa SSW 5.0 km/h 7.4 km/h 73% 0.0 mm CLR
06:15 12.9 °C 8.2 °C 1018.1 hPa SW 5.0 km/h 7.4 km/h 73% 0.0 mm CLR
06:20 12.9 °C 7.9 °C 1018.4 hPa WSW 5.0 km/h 9.3 km/h 72% 0.0 mm CLR
06:25 13.1 °C 7.9 °C 1018.4 hPa WSW 5.0 km/h 9.3 km/h 71% 0.0 mm CLR
06:30 13.2 °C 7.8 °C 1018.4 hPa SW 6.4 km/h 7.4 km/h 70% 0.0 mm CLR
06:35 13.3 °C 7.9 °C 1018.4 hPa SW 6.4 km/h 3.9 km/h 70% 0.0 mm CLR
06:40 13.3 °C 7.9 °C 1018.4 hPa SW 3.9 km/h 6.4 km/h 70% 0.0 mm CLR
06:45 13.2 °C 7.8 °C 1018.4 hPa South 3.9 km/h 7.4 km/h 70% 0.0 mm CLR
06:50 13.1 °C 7.7 °C 1018.5 hPa South 5.0 km/h 9.3 km/h 70% 0.0 mm CLR
06:55 12.9 °C 7.8 °C 1018.5 hPa South 5.0 km/h 7.4 km/h 71% 0.0 mm CLR
07:00 12.9 °C 7.8 °C 1018.5 hPa South 4.8 km/h 9.7 km/h 71% 0.0 mm CLR
07:05 12.8 °C 7.7 °C 1018.4 hPa ESE 5.0 km/h 11.1 km/h 71% 0.0 mm CLR
07:10 12.5 °C 7.6 °C 1018.4 hPa SSE 7.6 km/h 11.1 km/h 72% 0.0 mm CLR
07:15 12.1 °C 7.4 °C 1018.4 hPa SSE 7.6 km/h 11.1 km/h 73% 0.0 mm CLR
07:20 11.8 °C 7.3 °C 1018.7 hPa SSE 7.6 km/h 11.1 km/h 74% 0.0 mm CLR
07:25 11.6 °C 7.3 °C 1018.7 hPa South 7.6 km/h 7.4 km/h 75% 0.0 mm CLR
07:30 11.7 °C 7.6 °C 1018.7 hPa SSE 6.9 km/h 13.0 km/h 76% 0.0 mm CLR
07:35 11.8 °C 7.5 °C 1018.9 hPa South 6.9 km/h 12.2 km/h 75% 0.0 mm CLR
07:40 12.0 °C 7.5 °C 1018.9 hPa South 8.7 km/h 9.5 km/h 74% 0.0 mm CLR
07:45 12.3 °C 7.6 °C 1018.9 hPa South 8.7 km/h 11.1 km/h 73% 0.0 mm CLR
07:50 12.5 °C 7.6 °C 1019.2 hPa SSE 7.6 km/h 9.3 km/h 72% 0.0 mm CLR
07:55 12.7 °C 7.8 °C 1019.2 hPa SSW 7.6 km/h 7.4 km/h 72% 0.0 mm CLR
08:00 12.9 °C 7.8 °C 1019.2 hPa SSW 3.2 km/h 8.0 km/h 71% 0.0 mm CLR
08:05 13.3 °C 7.9 °C 1019.5 hPa SSW 4.7 km/h 3.9 km/h 70% 0.0 mm CLR
08:10 13.5 °C 7.9 °C 1019.5 hPa SSW 3.2 km/h   69% 0.0 mm CLR
08:15 13.8 °C 8.0 °C 1019.5 hPa NNW 3.2 km/h 10.0 km/h 68% 0.0 mm CLR
08:20 14.1 °C 8.3 °C 1019.9 hPa SSW 3.2 km/h 9.3 km/h 68% 0.0 mm CLR
08:25 14.4 °C 8.1 °C 1019.9 hPa WNW 3.2 km/h 7.4 km/h 66% 0.0 mm CLR
08:30 14.8 °C 8.3 °C 1019.9 hPa WNW 5.0 km/h 5.6 km/h 65% 0.0 mm CLR
08:35 15.1 °C 8.3 °C 1019.9 hPa West 5.0 km/h 7.4 km/h 64% 0.0 mm CLR
08:40 15.4 °C 8.4 °C 1019.9 hPa West 3.9 km/h 9.3 km/h 63% 0.0 mm CLR
08:45 15.7 °C 8.2 °C 1019.9 hPa WNW 3.9 km/h 11.9 km/h 61% 0.0 mm CLR
08:50 16.2 °C 8.2 °C 1020.1 hPa WNW 6.4 km/h 11.1 km/h 59% 0.0 mm CLR
08:55 16.7 °C 8.1 °C 1020.1 hPa WNW 6.4 km/h 11.1 km/h 57% 0.0 mm CLR
09:00 16.9 °C 7.8 °C 1020.1 hPa WNW 9.7 km/h 19.3 km/h 55% 0.0 mm CLR
09:05 17.2 °C 7.8 °C 1020.1 hPa WNW 9.5 km/h 13.0 km/h 54% 0.0 mm CLR
09:10 17.4 °C 7.7 °C 1020.1 hPa WNW 9.5 km/h 14.8 km/h 53% 0.0 mm CLR
09:15 17.7 °C 7.4 °C 1020.1 hPa WNW 9.5 km/h 20.4 km/h 51% 0.0 mm CLR
09:20 18.2 °C 7.3 °C 1020.2 hPa WNW 11.9 km/h 20.4 km/h 49% 0.0 mm CLR
09:25 18.5 °C 7.3 °C 1020.2 hPa NW 11.9 km/h 11.1 km/h 48% 0.0 mm CLR
09:30 18.7 °C 7.4 °C 1020.2 hPa NW 11.9 km/h 22.5 km/h 48% 0.0 mm CLR
09:35 18.8 °C 7.2 °C 1020.5 hPa NW 11.9 km/h 22.2 km/h 47% 0.0 mm CLR
09:40 18.9 °C 7.3 °C 1020.5 hPa NW 14.0 km/h 24.1 km/h 47% 0.0 mm CLR
09:45 19.1 °C 7.2 °C 1020.5 hPa NW 14.0 km/h 22.2 km/h 46% 0.0 mm CLR
09:50 19.2 °C 6.9 °C 1020.5 hPa NW 16.1 km/h 29.6 km/h 45% 0.0 mm CLR
09:55 19.3 °C 7.1 °C 1020.5 hPa WNW 16.1 km/h 31.5 km/h 45% 0.0 mm CLR
10:00 19.4 °C 7.2 °C 1020.5 hPa NW 20.9 km/h 33.8 km/h 45% 0.0 mm CLR
10:05 19.6 °C 7.3 °C 1020.6 hPa NNW 20.1 km/h 33.3 km/h 45% 0.0 mm CLR
10:10 19.5 °C 6.9 °C 1020.6 hPa WNW 19.0 km/h 27.8 km/h 44% 0.0 mm CLR
10:15 19.4 °C 6.8 °C 1020.6 hPa NW 19.0 km/h 29.6 km/h 44% 0.0 mm CLR
10:20 19.4 °C 7.2 °C 1021.1 hPa WNW 19.8 km/h 27.8 km/h 45% 0.0 mm CLR
10:25 19.4 °C 7.2 °C 1021.1 hPa WNW 19.8 km/h 18.5 km/h 45% 0.0 mm CLR
10:30 19.3 °C 7.1 °C 1021.1 hPa NW 15.6 km/h 27.8 km/h 45% 0.0 mm CLR
10:35 19.2 °C 6.9 °C 1021.3 hPa NW 15.6 km/h 22.2 km/h 45% 0.0 mm CLR
10:40 19.2 °C 6.9 °C 1021.3 hPa NNW 17.2 km/h 29.6 km/h 45% 0.0 mm CLR
10:45 19.1 °C 6.9 °C 1021.3 hPa NW 17.2 km/h 33.3 km/h 45% 0.0 mm CLR
10:50 19.1 °C 6.9 °C 1021.3 hPa WNW 19.8 km/h 22.2 km/h 45% 0.0 mm CLR
10:55 19.1 °C 6.6 °C 1021.3 hPa WNW 19.8 km/h 29.6 km/h 44% 0.0 mm CLR
11:00 19.1 °C 6.6 °C 1021.3 hPa NW 19.3 km/h 32.2 km/h 44% 0.0 mm CLR
11:05 19.2 °C 6.7 °C 1021.4 hPa WNW 18.3 km/h 24.1 km/h 44% 0.0 mm CLR
11:10 19.4 °C 6.8 °C 1021.4 hPa West 18.0 km/h 27.8 km/h 44% 0.0 mm CLR
11:15 19.6 °C 6.7 °C 1021.4 hPa NW 18.0 km/h 25.9 km/h 43% 0.0 mm CLR
11:20 19.8 °C 6.8 °C 1021.2 hPa NNW 17.2 km/h 27.4 km/h 43% 0.0 mm CLR
11:25 19.7 °C 6.4 °C 1021.2 hPa WNW 17.2 km/h 29.6 km/h 42% 0.0 mm CLR
11:30 19.8 °C 6.2 °C 1021.2 hPa WNW 20.9 km/h 38.9 km/h 41% 0.0 mm CLR
11:35 19.8 °C 6.2 °C 1021.2 hPa NW 20.9 km/h 37.0 km/h 41% 0.0 mm CLR
11:40 20.0 °C 6.3 °C 1021.2 hPa WNW 23.7 km/h 25.6 km/h 41% 0.0 mm CLR
11:45 20.3 °C 6.2 °C 1021.2 hPa WNW 23.7 km/h 31.5 km/h 40% 0.0 mm CLR
11:50 20.4 °C 6.3 °C 1021.2 hPa WNW 17.2 km/h 31.5 km/h 40% 0.0 mm CLR
11:55 20.6 °C 6.2 °C 1021.2 hPa NW 17.2 km/h 25.1 km/h 39% 0.0 mm CLR
12:00 20.7 °C 6.2 °C 1021.2 hPa WNW 20.9 km/h 35.4 km/h 39% 0.0 mm CLR
12:05 20.7 °C 6.2 °C 1021.3 hPa WSW 20.1 km/h 22.2 km/h 39% 0.0 mm CLR
12:10 20.7 °C 6.2 °C 1021.3 hPa West 17.2 km/h 14.8 km/h 39% 0.0 mm CLR
12:15 20.9 °C 6.4 °C 1021.3 hPa WNW 17.2 km/h 16.7 km/h 39% 0.0 mm CLR
12:20 21.1 °C 6.2 °C 1021.3 hPa West 10.3 km/h 22.2 km/h 38% 0.0 mm CLR
12:25 21.3 °C 6.0 °C 1021.3 hPa NNW 10.3 km/h 25.9 km/h 37% 0.0 mm CLR
12:30 21.3 °C 6.0 °C 1021.3 hPa West 16.1 km/h 20.4 km/h 37% 0.0 mm CLR
12:35 21.3 °C 6.0 °C 1021.4 hPa WNW 16.1 km/h 35.2 km/h 37% 0.0 mm CLR
12:40 21.5 °C 5.8 °C 1021.4 hPa WNW 19.0 km/h 33.3 km/h 36% 0.0 mm CLR
12:45 21.7 °C 5.9 °C 1021.4 hPa West 19.0 km/h 18.5 km/h 36% 0.0 mm CLR
12:50 21.8 °C 5.7 °C 1021.5 hPa WNW 15.6 km/h 27.8 km/h 35% 0.0 mm CLR
12:55 21.8 °C 5.2 °C 1021.5 hPa WNW 15.6 km/h 42.0 km/h 34% 0.0 mm CLR
13:00 21.7 °C 5.1 °C 1021.5 hPa WNW 22.5 km/h 46.7 km/h 34% 0.0 mm CLR
13:05 21.6 °C 5.1 °C 1021.7 hPa NW 22.5 km/h 35.2 km/h 34% 0.0 mm CLR
13:10 21.5 °C 4.9 °C 1021.7 hPa NW 21.7 km/h 35.2 km/h 34% 0.0 mm CLR
13:15 21.3 °C 4.8 °C 1021.7 hPa NW 21.7 km/h 27.8 km/h 34% 0.0 mm CLR
13:20 21.3 °C 4.8 °C 1021.6 hPa NW 20.1 km/h 27.8 km/h 34% 0.0 mm CLR
13:25 21.6 °C 5.1 °C 1021.6 hPa WNW 20.1 km/h 35.2 km/h 34% 0.0 mm CLR
13:30 21.5 °C 4.9 °C 1021.6 hPa West 20.9 km/h 37.0 km/h 34% 0.0 mm CLR
13:35 21.7 °C 4.7 °C 1021.4 hPa WNW 20.9 km/h 33.3 km/h 33% 0.0 mm CLR
13:40 21.9 °C 4.9 °C 1021.4 hPa NW 22.0 km/h 33.3 km/h 33% 0.0 mm CLR
13:45 21.7 °C 4.7 °C 1021.4 hPa NW 22.0 km/h 28.2 km/h 33% 0.0 mm CLR
13:50 21.7 °C 5.2 °C 1021.2 hPa West 22.0 km/h 27.8 km/h 34% 0.0 mm CLR
13:55 21.8 °C 4.8 °C 1021.2 hPa West 22.0 km/h 33.3 km/h 33% 0.0 mm CLR
14:00 21.9 °C 4.9 °C 1021.2 hPa West 22.5 km/h 35.4 km/h 33% 0.0 mm CLR
14:05 21.9 °C 4.9 °C 1021.0 hPa WNW 21.7 km/h 35.2 km/h 33% 0.0 mm CLR
14:10 21.8 °C 4.8 °C 1021.0 hPa WNW 20.9 km/h 33.8 km/h 33% 0.0 mm CLR
14:15 21.8 °C 4.4 °C 1021.0 hPa West 20.9 km/h 35.9 km/h 32% 0.0 mm CLR
14:20 21.9 °C 4.4 °C 1020.8 hPa West 20.9 km/h 29.6 km/h 32% 0.0 mm CLR
14:25 22.1 °C 4.6 °C 1020.8 hPa West 20.9 km/h 31.5 km/h 32% 0.0 mm CLR
14:30 22.2 °C 4.7 °C 1020.8 hPa West 19.0 km/h 30.9 km/h 32% 0.0 mm CLR
14:35 21.9 °C 4.4 °C 1020.6 hPa NW 19.0 km/h 25.9 km/h 32% 0.0 mm CLR
14:40 22.1 °C 4.2 °C 1020.6 hPa West 18.3 km/h 38.9 km/h 31% 0.0 mm CLR
14:45 22.1 °C 4.6 °C 1020.6 hPa WNW 18.3 km/h 29.6 km/h 32% 0.0 mm CLR
14:50 22.1 °C 4.2 °C 1020.4 hPa WNW 19.8 km/h 22.2 km/h 31% 0.0 mm CLR
14:55 22.0 °C 4.1 °C 1020.4 hPa NW 19.8 km/h 25.9 km/h 31% 0.0 mm CLR
15:00 22.1 °C 4.2 °C 1020.4 hPa WNW 16.1 km/h 27.4 km/h 31% 0.0 mm CLR
15:05 22.2 °C 4.3 °C 1020.3 hPa WNW 16.1 km/h 27.8 km/h 31% 0.0 mm CLR
15:10 22.4 °C 3.9 °C 1020.3 hPa West 14.8 km/h 37.0 km/h 30% 0.0 mm CLR
15:15 22.3 °C 3.9 °C 1020.3 hPa WNW 14.8 km/h 33.3 km/h 30% 0.0 mm CLR
15:20 22.6 °C 3.7 °C 1020.4 hPa WSW 20.1 km/h 29.6 km/h 29% 0.0 mm CLR
15:25 22.6 °C 3.2 °C 1020.4 hPa West 20.1 km/h 38.9 km/h 28% 0.0 mm CLR
15:30 22.5 °C 3.1 °C 1020.4 hPa WNW 21.7 km/h 24.1 km/h 28% 0.0 mm CLR
15:34 22.6 °C 3.7 °C 1020.4 hPa NNW 21.7 km/h 25.9 km/h 29% 0.0 mm CLR
15:40 22.4 °C 8.1 °C 1020.4 hPa NNW 16.4 km/h 16.7 km/h 40% 0.0 mm CLR
15:45 22.4 °C 4.4 °C 1020.4 hPa ENE 16.4 km/h 16.7 km/h 31% 0.0 mm CLR
15:50 21.8 °C 9.0 °C 1020.5 hPa NE 9.5 km/h 37.0 km/h 44% 0.0 mm CLR
15:55 20.7 °C 9.6 °C 1020.5 hPa NE 9.5 km/h 37.0 km/h 49% 0.0 mm CLR
16:00 20.3 °C 9.6 °C 1020.5 hPa NE 24.1 km/h 33.8 km/h 50% 0.0 mm CLR
16:05 20.3 °C 9.8 °C 1020.7 hPa ENE 23.3 km/h 31.5 km/h 51% 0.0 mm CLR
16:10 20.2 °C 9.2 °C 1020.7 hPa NE 15.6 km/h 18.5 km/h 49% 0.0 mm CLR
16:15 20.2 °C 9.7 °C 1020.7 hPa ENE 15.6 km/h 16.7 km/h 51% 0.0 mm CLR
16:20 20.2 °C 9.7 °C 1020.8 hPa NE 9.5 km/h 22.2 km/h 51% 0.0 mm CLR
16:25 19.8 °C 9.7 °C 1020.8 hPa ENE 9.5 km/h 25.9 km/h 52% 0.0 mm CLR
16:30 19.6 °C 9.8 °C 1020.8 hPa NE 17.2 km/h 20.4 km/h 53% 0.0 mm CLR
16:35 19.6 °C 9.8 °C 1020.7 hPa NE 17.2 km/h 25.9 km/h 53% 0.0 mm CLR
16:40 19.6 °C 9.8 °C 1020.7 hPa ENE 15.6 km/h 27.8 km/h 53% 0.0 mm CLR
16:45 19.3 °C 9.8 °C 1020.7 hPa NNW 15.6 km/h 18.5 km/h 54% 0.0 mm CLR
16:50 19.4 °C 9.6 °C 1020.8 hPa NE 14.0 km/h 24.1 km/h 53% 0.0 mm CLR
16:55 19.3 °C 9.5 °C 1020.8 hPa NE 14.0 km/h 20.4 km/h 53% 0.0 mm CLR
17:00 19.3 °C 9.5 °C 1020.8 hPa NE 16.1 km/h 27.4 km/h 53% 0.0 mm CLR
17:05 19.1 °C 9.3 °C 1020.9 hPa NNE 16.1 km/h 28.2 km/h 53% 0.0 mm CLR
17:10 18.9 °C 9.1 °C 1020.9 hPa ENE 18.3 km/h 25.9 km/h 53% 0.0 mm CLR
17:15 18.8 °C 8.7 °C 1020.9 hPa NE 18.3 km/h 24.1 km/h 52% 0.0 mm CLR
17:20 18.9 °C 8.8 °C 1021.0 hPa ENE 18.0 km/h 33.3 km/h 52% 0.0 mm CLR
17:25 18.8 °C 8.7 °C 1021.0 hPa ENE 18.0 km/h 25.9 km/h 52% 0.0 mm CLR
17:30 18.7 °C 8.3 °C 1021.0 hPa ENE 16.1 km/h 29.6 km/h 51% 0.0 mm CLR
17:35 18.5 °C 8.4 °C 1021.3 hPa ENE 16.1 km/h 25.6 km/h 52% 0.0 mm CLR
17:40 18.3 °C 8.3 °C 1021.3 hPa NE 18.0 km/h 22.2 km/h 52% 0.0 mm CLR
17:45 18.3 °C 8.3 °C 1021.3 hPa East 18.0 km/h 20.4 km/h 52% 0.0 mm CLR
17:50 18.3 °C 8.3 °C 1021.4 hPa NE 15.6 km/h 24.1 km/h 52% 0.0 mm CLR
17:55 18.1 °C 8.1 °C 1021.4 hPa NE 15.6 km/h 25.9 km/h 52% 0.0 mm CLR
18:00 18.0 °C 8.0 °C 1021.4 hPa NE 14.5 km/h 24.1 km/h 52% 0.0 mm CLR
18:05 17.9 °C 7.9 °C 1021.7 hPa NE 15.6 km/h 18.0 km/h 52% 0.0 mm CLR
18:10 17.8 °C 7.8 °C 1021.7 hPa ENE 13.7 km/h 16.7 km/h 52% 0.0 mm CLR
18:15 17.8 °C 8.1 °C 1021.7 hPa NE 13.7 km/h 25.9 km/h 53% 0.0 mm CLR
18:20 17.7 °C 8.0 °C 1021.9 hPa ENE 15.6 km/h 22.2 km/h 53% 0.0 mm CLR
18:25 17.6 °C 7.9 °C 1021.9 hPa North 15.6 km/h 18.5 km/h 53% 0.0 mm CLR
18:30 17.6 °C 8.2 °C 1021.9 hPa NNE 13.7 km/h 16.7 km/h 54% 0.0 mm CLR
18:35 17.4 °C 8.0 °C 1022.3 hPa NNE 13.7 km/h 20.4 km/h 54% 0.0 mm CLR
18:40 17.4 °C 8.0 °C 1022.3 hPa East 11.9 km/h 13.0 km/h 54% 0.0 mm CLR
18:45 17.3 °C 8.2 °C 1022.3 hPa ESE 11.9 km/h 14.8 km/h 55% 0.0 mm CLR
18:50 17.0 °C 7.9 °C 1022.5 hPa ESE 11.1 km/h 20.9 km/h 55% 0.0 mm CLR
18:55 16.7 °C 8.1 °C 1022.5 hPa ESE 11.1 km/h 25.9 km/h 57% 0.0 mm CLR
19:00 16.6 °C 8.0 °C 1022.5 hPa ESE 19.3 km/h 27.4 km/h 57% 0.0 mm CLR
19:05 16.4 °C 8.1 °C 1022.8 hPa ENE 18.0 km/h 27.8 km/h 58% 0.0 mm CLR
19:10 16.3 °C 8.0 °C 1022.8 hPa ESE 14.8 km/h 25.9 km/h 58% 0.0 mm CLR
19:15 16.2 °C 8.2 °C 1022.8 hPa ESE 14.8 km/h 22.2 km/h 59% 0.0 mm CLR
19:20 16.1 °C 8.1 °C 1023.2 hPa ENE 14.0 km/h 11.1 km/h 59% 0.0 mm CLR
19:25 16.0 °C 8.0 °C 1023.2 hPa East 14.0 km/h 18.5 km/h 59% 0.0 mm CLR
19:30 15.9 °C 7.9 °C 1023.2 hPa ESE 12.2 km/h 14.8 km/h 59% 0.0 mm CLR
19:35 15.9 °C 7.9 °C 1023.5 hPa East 12.2 km/h 11.1 km/h 59% 0.0 mm CLR
19:40 15.8 °C 8.1 °C 1023.5 hPa ESE 9.5 km/h 14.8 km/h 60% 0.0 mm CLR
19:45 15.7 °C 8.2 °C 1023.5 hPa ESE 9.5 km/h 16.7 km/h 61% 0.0 mm CLR
19:50 15.6 °C 8.1 °C 1023.7 hPa East 10.3 km/h 13.0 km/h 61% 0.0 mm CLR
19:55 15.5 °C 8.0 °C 1023.7 hPa SE 10.3 km/h 16.7 km/h 61% 0.0 mm CLR
20:00 15.4 °C 7.9 °C 1023.7 hPa ESE 9.7 km/h 19.3 km/h 61% 0.0 mm CLR
20:05 15.4 °C 7.9 °C 1024.2 hPa East 10.0 km/h 22.2 km/h 61% 0.0 mm CLR
20:10 15.3 °C 8.1 °C 1024.2 hPa ENE 11.9 km/h 16.7 km/h 62% 0.0 mm CLR
20:15 15.3 °C 8.1 °C 1024.2 hPa East 11.9 km/h 24.1 km/h 62% 0.0 mm CLR
20:20 15.3 °C 8.3 °C 1024.4 hPa ESE 13.0 km/h 16.7 km/h 63% 0.0 mm CLR
20:25 15.2 °C 8.4 °C 1024.4 hPa East 13.0 km/h 9.3 km/h 64% 0.0 mm CLR
20:30 15.1 °C 8.3 °C 1024.4 hPa NE 8.7 km/h 7.6 km/h 64% 0.0 mm CLR
20:35 15.1 °C 8.3 °C 1024.8 hPa ENE 8.7 km/h 10.0 km/h 64% 0.0 mm CLR
20:40 15.0 °C 8.4 °C 1024.8 hPa ENE 6.9 km/h 11.1 km/h 65% 0.0 mm CLR
20:45 14.8 °C 8.1 °C 1024.8 hPa NE 6.9 km/h 9.5 km/h 64% 0.0 mm CLR
20:50 14.4 °C 7.9 °C 1025.0 hPa NE 8.4 km/h 13.0 km/h 65% 0.0 mm CLR
20:55 14.3 °C 8.1 °C 1025.0 hPa NNE 8.4 km/h 9.3 km/h 66% 0.0 mm CLR
21:00 14.2 °C 8.0 °C 1025.0 hPa NE 8.0 km/h 11.3 km/h 66% 0.0 mm CLR
21:05 14.1 °C 7.8 °C 1025.3 hPa NE 7.6 km/h 13.0 km/h 66% 0.0 mm CLR
21:10 13.9 °C 7.9 °C 1025.3 hPa NE 9.5 km/h 13.0 km/h 67% 0.0 mm CLR
21:15 13.9 °C 7.9 °C 1025.3 hPa NE 9.5 km/h 11.1 km/h 67% 0.0 mm CLR
21:20 13.8 °C 8.0 °C 1025.5 hPa NE 9.5 km/h 9.3 km/h 68% 0.0 mm CLR
21:25 13.8 °C 8.0 °C 1025.5 hPa ENE 9.5 km/h 7.4 km/h 68% 0.0 mm CLR
21:30 13.9 °C 8.3 °C 1025.5 hPa NE 6.4 km/h 7.4 km/h 69% 0.0 mm CLR
21:35 13.9 °C 8.3 °C 1025.5 hPa NE 6.4 km/h 7.4 km/h 69% 0.0 mm CLR
21:40 13.9 °C 8.3 °C 1025.5 hPa NNE 5.0 km/h 6.4 km/h 69% 0.0 mm CLR
21:45 13.7 °C 7.9 °C 1025.5 hPa NE 5.0 km/h 9.3 km/h 68% 0.0 mm CLR
21:50 13.4 °C 7.8 °C 1025.6 hPa NNE 6.4 km/h 9.3 km/h 69% 0.0 mm CLR
21:55 13.2 °C 7.8 °C 1025.6 hPa NE 6.4 km/h 9.3 km/h 70% 0.0 mm CLR
22:00 13.3 °C 7.9 °C 1025.6 hPa NE 8.0 km/h 9.7 km/h 70% 0.0 mm CLR
22:05 13.3 °C 8.2 °C 1025.6 hPa NE 6.4 km/h 7.4 km/h 71% 0.0 mm CLR
22:10 13.3 °C 8.2 °C 1025.6 hPa NE 4.7 km/h 3.7 km/h 71% 0.0 mm CLR
22:15 13.3 °C 8.2 °C 1025.6 hPa NE 4.7 km/h 7.4 km/h 71% 0.0 mm CLR
22:20 13.4 °C 8.1 °C 1025.9 hPa NE 3.9 km/h 3.7 km/h 70% 0.0 mm CLR
22:25 13.3 °C 7.9 °C 1025.9 hPa NE 3.9 km/h 1.9 km/h 70% 0.0 mm CLR
22:30 13.3 °C 7.9 °C 1025.9 hPa Calm   7.4 km/h 70% 0.0 mm CLR
22:35 13.1 °C 7.9 °C 1026.1 hPa Calm   7.4 km/h 71% 0.0 mm CLR
22:40 13.0 °C 7.9 °C 1026.1 hPa NNW 5.0 km/h 7.4 km/h 71% 0.0 mm CLR
22:45 12.8 °C 7.7 °C 1026.1 hPa NNW 5.0 km/h 5.6 km/h 71% 0.0 mm CLR
22:50 12.7 °C 7.6 °C 1026.2 hPa NNW 3.2 km/h 5.6 km/h 71% 0.0 mm CLR
22:55 12.6 °C 7.7 °C 1026.2 hPa NE 3.2 km/h 8.4 km/h 72% 0.0 mm CLR
23:00 12.4 °C 7.4 °C 1026.2 hPa North 4.8 km/h 12.9 km/h 72% 0.0 mm CLR
23:05 12.3 °C 7.6 °C 1026.2 hPa NNE 5.0 km/h 9.3 km/h 73% 0.0 mm CLR
23:10 12.3 °C 7.6 °C 1026.2 hPa NE 4.7 km/h 5.8 km/h 73% 0.0 mm CLR
23:15 12.3 °C 7.6 °C 1026.2 hPa NE 4.7 km/h 9.3 km/h 73% 0.0 mm CLR
23:20 12.3 °C 7.6 °C 1026.3 hPa NE 5.0 km/h 9.3 km/h 73% 0.0 mm CLR
23:25 12.3 °C 7.6 °C 1026.3 hPa NE 5.0 km/h 7.4 km/h 73% 0.0 mm CLR
23:30 12.3 °C 7.6 °C 1026.3 hPa NE 5.8 km/h 7.4 km/h 73% 0.0 mm CLR
23:35 12.3 °C 7.6 °C 1026.3 hPa NE 5.8 km/h 5.6 km/h 73% 0.0 mm CLR
23:40 12.3 °C 7.6 °C 1026.3 hPa NE 4.7 km/h 3.9 km/h 73% 0.0 mm CLR
23:45 12.3 °C 7.6 °C 1026.3 hPa NE 4.7 km/h 3.9 km/h 73% 0.0 mm CLR
23:50 12.3 °C 7.4 °C 1026.4 hPa ENE 2.9 km/h 5.6 km/h 72% 0.0 mm CLR
23:55 12.2 °C 7.5 °C 1026.4 hPa ENE 2.9 km/h 7.4 km/h 73% 0.0 mm CLR
Murcia-Puente Tocinos, España
Compliments of Weather Underground - 2.75 mb

La estación de MeteoMurcia.com, publica sus datos en los siguientes proyectos:

Weather Underground PWS IMURCIAP2 Meteoclimatic www.awekas.at

W3Counter
Web Analytics